sensor_id;sensor_type;location;lat;lon;timestamp;pressure;altitude;pressure_sealevel;temperature;humidity
63493;BME280;49638;47.526;10.028;2022-09-13T00:02:24;91513.72;;;12.08;81.90
63493;BME280;49638;47.526;10.028;2022-09-13T00:05:24;91508.94;;;12.05;82.20
63493;BME280;49638;47.526;10.028;2022-09-13T00:08:25;91502.06;;;12.04;81.63
63493;BME280;49638;47.526;10.028;2022-09-13T00:11:28;91516.69;;;12.17;81.36
63493;BME280;49638;47.526;10.028;2022-09-13T00:14:28;91499.13;;;12.05;81.41
63493;BME280;49638;47.526;10.028;2022-09-13T00:17:29;91498.91;;;12.12;81.51
63493;BME280;49638;47.526;10.028;2022-09-13T00:20:29;91506.34;;;12.15;80.89
63493;BME280;49638;47.526;10.028;2022-09-13T00:23:29;91491.22;;;12.11;81.64
63493;BME280;49638;47.526;10.028;2022-09-13T00:26:30;91495.69;;;12.05;82.05
63493;BME280;49638;47.526;10.028;2022-09-13T00:29:30;91496.75;;;12.04;82.19
63493;BME280;49638;47.526;10.028;2022-09-13T00:32:31;91507.38;;;12.09;82.10
63493;BME280;49638;47.526;10.028;2022-09-13T00:35:31;91494.09;;;12.04;81.99
63493;BME280;49638;47.526;10.028;2022-09-13T00:38:34;91490.44;;;12.10;81.49
63493;BME280;49638;47.526;10.028;2022-09-13T00:41:35;91497.31;;;12.11;82.02
63493;BME280;49638;47.526;10.028;2022-09-13T00:48:00;91486.94;;;12.04;82.80
63493;BME280;49638;47.526;10.028;2022-09-13T00:51:05;91482.44;;;12.00;82.45
63493;BME280;49638;47.526;10.028;2022-09-13T00:54:08;91471.81;;;11.95;82.91
63493;BME280;49638;47.526;10.028;2022-09-13T00:57:10;91497.78;;;11.98;82.80
63493;BME280;49638;47.526;10.028;2022-09-13T01:00:13;91483.19;;;11.95;83.08
63493;BME280;49638;47.526;10.028;2022-09-13T01:03:16;91484.25;;;11.89;83.17
63493;BME280;49638;47.526;10.028;2022-09-13T01:06:22;91478.66;;;11.86;83.45
63493;BME280;49638;47.526;10.028;2022-09-13T01:09:23;91463.81;;;11.84;83.33
63493;BME280;49638;47.526;10.028;2022-09-13T01:12:36;91475.78;;;11.92;82.55
63493;BME280;49638;47.526;10.028;2022-09-13T01:15:42;91471.78;;;11.90;83.01
63493;BME280;49638;47.526;10.028;2022-09-13T01:18:42;91461.16;;;11.84;82.70
63493;BME280;49638;47.526;10.028;2022-09-13T01:22:01;91476.59;;;11.98;82.53
63493;BME280;49638;47.526;10.028;2022-09-13T01:25:21;91463.13;;;12.04;81.63
63493;BME280;49638;47.526;10.028;2022-09-13T01:28:51;91458.88;;;12.08;81.18
63493;BME280;49638;47.526;10.028;2022-09-13T01:35:27;91457.31;;;12.07;81.30
63493;BME280;49638;47.526;10.028;2022-09-13T01:39:22;91465.03;;;12.14;79.95
63493;BME280;49638;47.526;10.028;2022-09-13T01:42:27;91471.66;;;12.22;81.12
63493;BME280;49638;47.526;10.028;2022-09-13T01:49:15;91475.63;;;12.19;80.60
63493;BME280;49638;47.526;10.028;2022-09-13T01:52:48;91473.81;;;12.20;80.88
63493;BME280;49638;47.526;10.028;2022-09-13T01:55:57;91471.94;;;12.20;81.48
63493;BME280;49638;47.526;10.028;2022-09-13T01:59:03;91459.16;;;12.12;81.41
63493;BME280;49638;47.526;10.028;2022-09-13T02:05:35;91457.91;;;12.25;79.40
63493;BME280;49638;47.526;10.028;2022-09-13T02:08:47;91456.28;;;12.19;81.21
63493;BME280;49638;47.526;10.028;2022-09-13T02:12:12;91451.19;;;12.02;81.52
63493;BME280;49638;47.526;10.028;2022-09-13T02:15:16;91466.03;;;12.08;81.90
63493;BME280;49638;47.526;10.028;2022-09-13T02:18:22;91475.28;;;12.05;83.07
63493;BME280;49638;47.526;10.028;2022-09-13T02:21:28;91471.56;;;12.01;81.99
63493;BME280;49638;47.526;10.028;2022-09-13T02:24:36;91467.06;;;12.02;81.46
63493;BME280;49638;47.526;10.028;2022-09-13T02:27:40;91462.84;;;12.01;81.43
63493;BME280;49638;47.526;10.028;2022-09-13T02:30:47;91462.59;;;12.07;81.21
63493;BME280;49638;47.526;10.028;2022-09-13T02:34:33;91471.63;;;12.12;81.26
63493;BME280;49638;47.526;10.028;2022-09-13T02:37:38;91452.78;;;12.03;81.08
63493;BME280;49638;47.526;10.028;2022-09-13T02:40:46;91463.69;;;12.12;80.95
63493;BME280;49638;47.526;10.028;2022-09-13T02:43:52;91465.53;;;12.11;80.79
63493;BME280;49638;47.526;10.028;2022-09-13T02:47:09;91460.75;;;12.08;81.15
63493;BME280;49638;47.526;10.028;2022-09-13T02:53:42;91468.75;;;12.18;81.20
63493;BME280;49638;47.526;10.028;2022-09-13T02:56:53;91469.00;;;12.17;80.81
63493;BME280;49638;47.526;10.028;2022-09-13T02:59:58;91459.16;;;12.07;81.47
63493;BME280;49638;47.526;10.028;2022-09-13T03:03:03;91476.41;;;12.15;81.32
63493;BME280;49638;47.526;10.028;2022-09-13T03:06:04;91480.41;;;12.17;81.08
63493;BME280;49638;47.526;10.028;2022-09-13T03:09:05;91484.91;;;12.17;81.53
63493;BME280;49638;47.526;10.028;2022-09-13T03:12:22;91479.56;;;12.12;79.89
63493;BME280;49638;47.526;10.028;2022-09-13T03:15:48;91488.31;;;12.12;80.93
63493;BME280;49638;47.526;10.028;2022-09-13T03:35:39;91487.00;;;12.15;81.26
63493;BME280;49638;47.526;10.028;2022-09-13T03:41:54;91482.44;;;12.05;81.59
63493;BME280;49638;47.526;10.028;2022-09-13T03:44:56;91472.31;;;11.92;81.72
63493;BME280;49638;47.526;10.028;2022-09-13T03:47:57;91482.16;;;12.01;81.98
63493;BME280;49638;47.526;10.028;2022-09-13T03:50:58;91471.81;;;11.95;81.82
63493;BME280;49638;47.526;10.028;2022-09-13T03:54:05;91479.53;;;12.01;81.53
63493;BME280;49638;47.526;10.028;2022-09-13T03:57:16;91474.50;;;12.05;80.87
63493;BME280;49638;47.526;10.028;2022-09-13T04:00:17;91489.41;;;12.16;80.98
63493;BME280;49638;47.526;10.028;2022-09-13T04:03:17;91481.44;;;12.11;81.00
63493;BME280;49638;47.526;10.028;2022-09-13T04:06:18;91472.69;;;12.16;80.61
63493;BME280;49638;47.526;10.028;2022-09-13T04:09:18;91469.81;;;12.22;80.37
63493;BME280;49638;47.526;10.028;2022-09-13T04:12:18;91467.72;;;12.24;80.27
63493;BME280;49638;47.526;10.028;2022-09-13T04:15:19;91474.34;;;12.27;80.27
63493;BME280;49638;47.526;10.028;2022-09-13T04:18:19;91466.13;;;12.23;79.79
63493;BME280;49638;47.526;10.028;2022-09-13T04:21:19;91477.28;;;12.30;80.00
63493;BME280;49638;47.526;10.028;2022-09-13T04:24:24;91461.88;;;12.22;79.56
63493;BME280;49638;47.526;10.028;2022-09-13T04:27:24;91487.66;;;12.37;79.45
63493;BME280;49638;47.526;10.028;2022-09-13T04:30:26;91486.84;;;12.42;79.81
63493;BME280;49638;47.526;10.028;2022-09-13T04:33:26;91469.59;;;12.34;79.86
63493;BME280;49638;47.526;10.028;2022-09-13T04:36:27;91477.84;;;12.43;79.39
63493;BME280;49638;47.526;10.028;2022-09-13T04:39:27;91472.50;;;12.32;79.38
63493;BME280;49638;47.526;10.028;2022-09-13T04:42:27;91475.94;;;12.28;79.85
63493;BME280;49638;47.526;10.028;2022-09-13T04:45:28;91486.25;;;12.29;80.11
63493;BME280;49638;47.526;10.028;2022-09-13T04:48:28;91470.88;;;12.21;80.23
63493;BME280;49638;47.526;10.028;2022-09-13T04:51:29;91476.72;;;12.23;79.97
63493;BME280;49638;47.526;10.028;2022-09-13T04:54:29;91482.03;;;12.28;80.04
63493;BME280;49638;47.526;10.028;2022-09-13T04:57:30;91473.56;;;12.26;79.87
63493;BME280;49638;47.526;10.028;2022-09-13T05:00:31;91469.84;;;12.27;80.01
63493;BME280;49638;47.526;10.028;2022-09-13T05:03:32;91481.28;;;12.33;80.02
63493;BME280;49638;47.526;10.028;2022-09-13T05:06:33;91480.22;;;12.34;80.05
63493;BME280;49638;47.526;10.028;2022-09-13T05:09:34;91499.88;;;12.43;79.58
63493;BME280;49638;47.526;10.028;2022-09-13T05:12:34;91492.66;;;12.39;79.71
63493;BME280;49638;47.526;10.028;2022-09-13T05:15:34;91496.94;;;12.45;79.72
63493;BME280;49638;47.526;10.028;2022-09-13T05:18:35;91501.72;;;12.48;79.44
63493;BME280;49638;47.526;10.028;2022-09-13T05:21:35;91509.16;;;12.56;79.32
63493;BME280;49638;47.526;10.028;2022-09-13T05:24:36;91499.09;;;12.53;78.84
63493;BME280;49638;47.526;10.028;2022-09-13T05:27:36;91513.44;;;12.62;78.64
63493;BME280;49638;47.526;10.028;2022-09-13T05:30:36;91509.97;;;12.57;79.10
63493;BME280;49638;47.526;10.028;2022-09-13T05:33:38;91506.25;;;12.52;79.23
63493;BME280;49638;47.526;10.028;2022-09-13T05:36:39;91517.91;;;12.57;79.18
63493;BME280;49638;47.526;10.028;2022-09-13T05:39:39;91512.88;;;12.55;79.51
63493;BME280;49638;47.526;10.028;2022-09-13T05:42:39;91515.53;;;12.55;79.83
63493;BME280;49638;47.526;10.028;2022-09-13T05:45:40;91519.25;;;12.59;79.81
63493;BME280;49638;47.526;10.028;2022-09-13T05:48:40;91514.50;;;12.66;79.57
63493;BME280;49638;47.526;10.028;2022-09-13T05:51:41;91514.31;;;12.88;79.48
63493;BME280;49638;47.526;10.028;2022-09-13T05:54:41;91516.22;;;13.13;79.61
63493;BME280;49638;47.526;10.028;2022-09-13T05:57:41;91507.78;;;13.47;79.59
63493;BME280;49638;47.526;10.028;2022-09-13T06:00:42;91512.03;;;13.84;78.93
63493;BME280;49638;47.526;10.028;2022-09-13T06:03:43;91510.91;;;14.15;78.26
63493;BME280;49638;47.526;10.028;2022-09-13T06:06:45;91515.34;;;14.46;77.73
63493;BME280;49638;47.526;10.028;2022-09-13T06:09:45;91502.00;;;14.66;77.37
63493;BME280;49638;47.526;10.028;2022-09-13T06:12:46;91519.41;;;14.98;76.78
63493;BME280;49638;47.526;10.028;2022-09-13T06:15:49;91521.69;;;15.20;75.76
63493;BME280;49638;47.526;10.028;2022-09-13T06:18:49;91521.81;;;15.38;75.13
63493;BME280;49638;47.526;10.028;2022-09-13T06:21:49;91522.22;;;15.61;74.80
63493;BME280;49638;47.526;10.028;2022-09-13T06:24:50;91524.25;;;15.79;74.35
63493;BME280;49638;47.526;10.028;2022-09-13T06:27:50;91515.81;;;15.96;73.88
63493;BME280;49638;47.526;10.028;2022-09-13T06:30:50;91517.47;;;16.21;73.78
63493;BME280;49638;47.526;10.028;2022-09-13T06:33:56;91510.13;;;16.37;72.47
63493;BME280;49638;47.526;10.028;2022-09-13T06:36:57;91503.81;;;16.52;72.65
63493;BME280;49638;47.526;10.028;2022-09-13T06:39:57;91499.94;;;16.63;72.27
63493;BME280;49638;47.526;10.028;2022-09-13T06:42:57;91491.56;;;16.75;71.60
63493;BME280;49638;47.526;10.028;2022-09-13T06:45:59;91506.59;;;16.90;70.94
63493;BME280;49638;47.526;10.028;2022-09-13T06:49:03;91497.09;;;17.02;69.78
63493;BME280;49638;47.526;10.028;2022-09-13T06:52:04;91495.88;;;17.14;69.66
63493;BME280;49638;47.526;10.028;2022-09-13T06:55:04;91482.38;;;17.24;69.10
63493;BME280;49638;47.526;10.028;2022-09-13T06:58:04;91483.00;;;17.35;69.88
63493;BME280;49638;47.526;10.028;2022-09-13T07:01:14;91486.84;;;17.47;67.26
63493;BME280;49638;47.526;10.028;2022-09-13T07:04:16;91485.38;;;17.55;68.97
63493;BME280;49638;47.526;10.028;2022-09-13T07:07:18;91469.88;;;17.57;68.95
63493;BME280;49638;47.526;10.028;2022-09-13T07:10:18;91475.53;;;17.69;68.76
63493;BME280;49638;47.526;10.028;2022-09-13T07:13:18;91475.69;;;17.78;68.94
63493;BME280;49638;47.526;10.028;2022-09-13T07:16:22;91481.19;;;17.87;68.68
63493;BME280;49638;47.526;10.028;2022-09-13T07:19:24;91484.88;;;18.05;68.99
63493;BME280;49638;47.526;10.028;2022-09-13T07:22:27;91468.84;;;18.05;69.15
63493;BME280;49638;47.526;10.028;2022-09-13T07:25:28;91474.81;;;18.15;68.55
63493;BME280;49638;47.526;10.028;2022-09-13T07:28:29;91464.09;;;18.15;68.88
63493;BME280;49638;47.526;10.028;2022-09-13T07:31:32;91466.00;;;18.29;68.95
63493;BME280;49638;47.526;10.028;2022-09-13T07:34:33;91458.97;;;18.33;68.48
63493;BME280;49638;47.526;10.028;2022-09-13T07:37:33;91468.88;;;18.46;68.96
63493;BME280;49638;47.526;10.028;2022-09-13T07:40:34;91470.38;;;18.52;68.63
63493;BME280;49638;47.526;10.028;2022-09-13T07:43:36;91467.78;;;18.61;68.85
63493;BME280;49638;47.526;10.028;2022-09-13T07:46:37;91458.38;;;18.63;68.78
63493;BME280;49638;47.526;10.028;2022-09-13T07:49:40;91460.59;;;18.75;68.34
63493;BME280;49638;47.526;10.028;2022-09-13T07:52:40;91461.84;;;18.91;68.14
63493;BME280;49638;47.526;10.028;2022-09-13T07:55:41;91461.34;;;19.03;68.07
63493;BME280;49638;47.526;10.028;2022-09-13T07:58:42;91463.03;;;19.13;68.49
63493;BME280;49638;47.526;10.028;2022-09-13T08:01:45;91457.53;;;19.18;68.32
63493;BME280;49638;47.526;10.028;2022-09-13T08:04:46;91457.81;;;19.30;68.45
63493;BME280;49638;47.526;10.028;2022-09-13T08:07:46;91458.94;;;19.29;68.72
63493;BME280;49638;47.526;10.028;2022-09-13T08:10:47;91455.84;;;19.22;68.72
63493;BME280;49638;47.526;10.028;2022-09-13T08:13:49;91459.34;;;19.23;68.18
63493;BME280;49638;47.526;10.028;2022-09-13T08:16:49;91468.03;;;19.28;68.30
63493;BME280;49638;47.526;10.028;2022-09-13T08:19:50;91455.19;;;19.17;68.58
63493;BME280;49638;47.526;10.028;2022-09-13T08:22:50;91469.22;;;19.22;68.58
63493;BME280;49638;47.526;10.028;2022-09-13T08:25:51;91473.13;;;19.16;68.75
63493;BME280;49638;47.526;10.028;2022-09-13T08:28:55;91463.13;;;19.08;69.02
63493;BME280;49638;47.526;10.028;2022-09-13T08:31:56;91467.50;;;19.04;69.87
63493;BME280;49638;47.526;10.028;2022-09-13T08:34:56;91470.31;;;18.99;70.29
63493;BME280;49638;47.526;10.028;2022-09-13T08:37:57;91469.88;;;18.91;70.68
63493;BME280;49638;47.526;10.028;2022-09-13T08:41:02;91473.16;;;18.88;70.66
63493;BME280;49638;47.526;10.028;2022-09-13T08:44:27;91472.19;;;18.84;69.61
63493;BME280;49638;47.526;10.028;2022-09-13T08:47:39;91465.34;;;18.78;70.78
63493;BME280;49638;47.526;10.028;2022-09-13T08:50:41;91463.34;;;18.70;71.48
63493;BME280;49638;47.526;10.028;2022-09-13T08:53:46;91456.41;;;18.69;71.28
63493;BME280;49638;47.526;10.028;2022-09-13T08:57:09;91455.91;;;18.67;70.17
63493;BME280;49638;47.526;10.028;2022-09-13T09:00:30;91465.03;;;18.66;69.71
63493;BME280;49638;47.526;10.028;2022-09-13T09:06:36;91467.91;;;18.70;71.37
63493;BME280;49638;47.526;10.028;2022-09-13T09:09:59;91454.22;;;18.71;69.25
63493;BME280;49638;47.526;10.028;2022-09-13T09:13:34;91458.41;;;18.77;69.36
63493;BME280;49638;47.526;10.028;2022-09-13T09:16:40;91451.66;;;18.80;70.84
63493;BME280;49638;47.526;10.028;2022-09-13T09:19:53;91464.75;;;18.81;70.14
63493;BME280;49638;47.526;10.028;2022-09-13T09:22:54;91445.63;;;18.74;71.05
63493;BME280;49638;47.526;10.028;2022-09-13T09:25:59;91452.44;;;18.80;71.19
63493;BME280;49638;47.526;10.028;2022-09-13T09:29:20;91443.91;;;18.78;69.69
63493;BME280;49638;47.526;10.028;2022-09-13T09:38:45;91450.06;;;18.93;71.94
63493;BME280;49638;47.526;10.028;2022-09-13T09:41:45;91441.13;;;18.97;71.40
63493;BME280;49638;47.526;10.028;2022-09-13T09:44:50;91443.78;;;19.11;70.04
63493;BME280;49638;47.526;10.028;2022-09-13T09:47:53;91442.22;;;19.32;69.80
63493;BME280;49638;47.526;10.028;2022-09-13T09:50:56;91456.66;;;19.45;68.79
63493;BME280;49638;47.526;10.028;2022-09-13T09:54:02;91442.84;;;19.52;68.17
63493;BME280;49638;47.526;10.028;2022-09-13T09:57:04;91441.53;;;19.63;68.09
63493;BME280;49638;47.526;10.028;2022-09-13T10:00:10;91449.03;;;19.75;66.19
63493;BME280;49638;47.526;10.028;2022-09-13T10:03:19;91445.63;;;19.83;62.39
63493;BME280;49638;47.526;10.028;2022-09-13T10:06:24;91442.31;;;19.86;63.75
63493;BME280;49638;47.526;10.028;2022-09-13T10:09:26;91446.91;;;19.85;65.36
63493;BME280;49638;47.526;10.028;2022-09-13T10:12:29;91444.72;;;19.88;64.53
63493;BME280;49638;47.526;10.028;2022-09-13T10:15:32;91429.09;;;19.90;64.08
63493;BME280;49638;47.526;10.028;2022-09-13T10:18:35;91441.16;;;20.01;63.84
63493;BME280;49638;47.526;10.028;2022-09-13T10:21:36;91434.38;;;20.03;63.60
63493;BME280;49638;47.526;10.028;2022-09-13T10:24:36;91435.84;;;20.09;63.10
63493;BME280;49638;47.526;10.028;2022-09-13T10:27:40;91432.38;;;20.09;61.16
63493;BME280;49638;47.526;10.028;2022-09-13T10:30:48;91430.47;;;20.09;60.77
63493;BME280;49638;47.526;10.028;2022-09-13T10:33:58;91440.16;;;20.19;58.68
63493;BME280;49638;47.526;10.028;2022-09-13T10:37:03;91439.53;;;20.22;60.79
63493;BME280;49638;47.526;10.028;2022-09-13T10:40:17;91441.13;;;20.23;56.51
63493;BME280;49638;47.526;10.028;2022-09-13T10:43:27;91440.66;;;20.21;56.80
63493;BME280;49638;47.526;10.028;2022-09-13T10:46:31;91436.72;;;20.27;60.08
63493;BME280;49638;47.526;10.028;2022-09-13T10:49:43;91422.34;;;20.23;58.68
63493;BME280;49638;47.526;10.028;2022-09-13T10:52:52;91434.53;;;20.29;59.67
63493;BME280;49638;47.526;10.028;2022-09-13T10:55:53;91421.22;;;20.24;60.05
63493;BME280;49638;47.526;10.028;2022-09-13T10:59:22;91432.34;;;20.31;53.84
63493;BME280;49638;47.526;10.028;2022-09-13T11:02:51;91415.91;;;20.33;56.28
63493;BME280;49638;47.526;10.028;2022-09-13T11:12:24;91418.28;;;20.35;58.48
63493;BME280;49638;47.526;10.028;2022-09-13T11:19:10;91408.53;;;20.39;55.08
63493;BME280;49638;47.526;10.028;2022-09-13T11:29:27;91392.78;;;20.54;57.71
63493;BME280;49638;47.526;10.028;2022-09-13T11:39:58;91397.13;;;20.73;54.17
63493;BME280;49638;47.526;10.028;2022-09-13T11:46:37;91390.22;;;20.89;55.17
63493;BME280;49638;47.526;10.028;2022-09-13T11:50:02;91395.28;;;20.99;55.04
63493;BME280;49638;47.526;10.028;2022-09-13T11:53:29;91387.53;;;21.07;55.68
63493;BME280;49638;47.526;10.028;2022-09-13T11:56:42;91386.44;;;21.08;56.69
63493;BME280;49638;47.526;10.028;2022-09-13T12:00:08;91382.00;;;21.03;56.11
63493;BME280;49638;47.526;10.028;2022-09-13T12:06:23;91378.19;;;20.87;58.14
63493;BME280;49638;47.526;10.028;2022-09-13T12:09:28;91382.44;;;20.88;57.65
63493;BME280;49638;47.526;10.028;2022-09-13T12:12:33;91379.44;;;20.81;57.75
63493;BME280;49638;47.526;10.028;2022-09-13T12:15:40;91372.31;;;20.85;56.39
63493;BME280;49638;47.526;10.028;2022-09-13T12:18:45;91366.78;;;20.81;54.77
63493;BME280;49638;47.526;10.028;2022-09-13T12:21:47;91356.69;;;20.87;56.45
63493;BME280;49638;47.526;10.028;2022-09-13T12:24:57;91355.13;;;20.86;54.62
63493;BME280;49638;47.526;10.028;2022-09-13T12:28:10;91358.44;;;20.91;53.51
63493;BME280;49638;47.526;10.028;2022-09-13T12:31:16;91362.88;;;20.96;55.99
63493;BME280;49638;47.526;10.028;2022-09-13T12:34:27;91362.72;;;21.01;54.44
63493;BME280;49638;47.526;10.028;2022-09-13T12:37:52;91351.66;;;21.02;54.23
63493;BME280;49638;47.526;10.028;2022-09-13T12:41:17;91357.50;;;21.13;54.72
63493;BME280;49638;47.526;10.028;2022-09-13T12:51:05;91369.06;;;21.40;56.13
63493;BME280;49638;47.526;10.028;2022-09-13T13:00:37;91321.00;;;21.47;55.97
63493;BME280;49638;47.526;10.028;2022-09-13T13:03:50;91353.34;;;21.77;54.98
63493;BME280;49638;47.526;10.028;2022-09-13T13:07:01;91354.13;;;21.86;55.43
63493;BME280;49638;47.526;10.028;2022-09-13T13:10:02;91348.41;;;21.87;56.56
63493;BME280;49638;47.526;10.028;2022-09-13T13:13:23;91358.69;;;21.94;55.72
63493;BME280;49638;47.526;10.028;2022-09-13T13:16:37;91359.81;;;21.93;56.19
63493;BME280;49638;47.526;10.028;2022-09-13T13:19:39;91336.72;;;21.83;56.73
63493;BME280;49638;47.526;10.028;2022-09-13T13:26:06;91336.84;;;21.95;56.32
63493;BME280;49638;47.526;10.028;2022-09-13T13:29:18;91339.84;;;22.03;56.65
63493;BME280;49638;47.526;10.028;2022-09-13T13:32:19;91328.78;;;21.95;57.72
63493;BME280;49638;47.526;10.028;2022-09-13T13:35:29;91321.50;;;21.87;56.51
63493;BME280;49638;47.526;10.028;2022-09-13T13:38:46;91321.69;;;21.91;55.65
63493;BME280;49638;47.526;10.028;2022-09-13T13:48:09;91299.19;;;21.87;57.58
63493;BME280;49638;47.526;10.028;2022-09-13T13:54:31;91290.97;;;21.92;56.81
63493;BME280;49638;47.526;10.028;2022-09-13T13:58:11;91302.16;;;22.03;57.86
63493;BME280;49638;47.526;10.028;2022-09-13T14:01:27;91302.78;;;22.08;58.84
63493;BME280;49638;47.526;10.028;2022-09-13T14:07:42;91295.81;;;22.16;60.59
63493;BME280;49638;47.526;10.028;2022-09-13T14:21:44;91304.44;;;22.30;57.20
63493;BME280;49638;47.526;10.028;2022-09-13T14:24:39;91302.53;;;22.31;59.12
63493;BME280;49638;47.526;10.028;2022-09-13T14:27:41;91294.78;;;22.29;59.84
63493;BME280;49638;47.526;10.028;2022-09-13T14:30:45;91294.47;;;22.31;61.16
63493;BME280;49638;47.526;10.028;2022-09-13T14:33:46;91299.34;;;22.37;61.97
63493;BME280;49638;47.526;10.028;2022-09-13T14:36:52;91291.75;;;22.31;61.44
63493;BME280;49638;47.526;10.028;2022-09-13T14:42:57;91274.41;;;22.19;61.45
63493;BME280;49638;47.526;10.028;2022-09-13T14:46:05;91275.19;;;22.20;61.50
63493;BME280;49638;47.526;10.028;2022-09-13T14:49:09;91269.50;;;22.13;62.26
63493;BME280;49638;47.526;10.028;2022-09-13T14:52:29;91269.16;;;22.14;64.72
63493;BME280;49638;47.526;10.028;2022-09-13T14:55:35;91267.94;;;22.12;66.22
63493;BME280;49638;47.526;10.028;2022-09-13T14:58:52;91264.63;;;22.06;68.27
63493;BME280;49638;47.526;10.028;2022-09-13T15:01:53;91252.53;;;21.91;67.73
63493;BME280;49638;47.526;10.028;2022-09-13T15:04:57;91255.53;;;21.90;68.79
63493;BME280;49638;47.526;10.028;2022-09-13T15:07:59;91250.13;;;21.90;69.22
63493;BME280;49638;47.526;10.028;2022-09-13T15:11:01;91238.94;;;21.79;69.35
63493;BME280;49638;47.526;10.028;2022-09-13T15:17:12;91249.44;;;21.72;70.65
63493;BME280;49638;47.526;10.028;2022-09-13T15:20:13;91241.22;;;21.68;71.30
63493;BME280;49638;47.526;10.028;2022-09-13T15:23:16;91235.06;;;21.59;71.60
63493;BME280;49638;47.526;10.028;2022-09-13T15:26:22;91247.06;;;21.70;70.96
63493;BME280;49638;47.526;10.028;2022-09-13T15:29:22;91239.94;;;21.66;70.43
63493;BME280;49638;47.526;10.028;2022-09-13T15:32:30;91244.84;;;21.72;69.25
63493;BME280;49638;47.526;10.028;2022-09-13T15:35:42;91247.34;;;21.78;69.18
63493;BME280;49638;47.526;10.028;2022-09-13T15:42:12;91249.84;;;21.83;68.39
63493;BME280;49638;47.526;10.028;2022-09-13T15:45:13;91242.91;;;21.82;68.20
63493;BME280;49638;47.526;10.028;2022-09-13T15:48:24;91249.84;;;21.83;67.96
63493;BME280;49638;47.526;10.028;2022-09-13T15:51:26;91247.66;;;21.76;68.31
63493;BME280;49638;47.526;10.028;2022-09-13T15:54:31;91253.38;;;21.75;68.16
63493;BME280;49638;47.526;10.028;2022-09-13T15:57:32;91259.22;;;21.77;68.32
63493;BME280;49638;47.526;10.028;2022-09-13T16:00:32;91254.03;;;21.71;67.99
63493;BME280;49638;47.526;10.028;2022-09-13T16:03:32;91250.72;;;21.66;68.68
63493;BME280;49638;47.526;10.028;2022-09-13T16:06:34;91245.38;;;21.57;69.88
63493;BME280;49638;47.526;10.028;2022-09-13T16:09:38;91249.78;;;21.53;71.08
63493;BME280;49638;47.526;10.028;2022-09-13T16:12:38;91249.97;;;21.48;71.11
63493;BME280;49638;47.526;10.028;2022-09-13T16:15:38;91235.75;;;21.39;71.71
63493;BME280;49638;47.526;10.028;2022-09-13T16:18:39;91250.31;;;21.38;71.64
63493;BME280;49638;47.526;10.028;2022-09-13T16:21:39;91227.56;;;21.26;71.85
63493;BME280;49638;47.526;10.028;2022-09-13T16:24:39;91229.47;;;21.17;71.83
63493;BME280;49638;47.526;10.028;2022-09-13T16:27:41;91226.16;;;21.12;71.70
63493;BME280;49638;47.526;10.028;2022-09-13T16:30:41;91218.28;;;20.98;72.07
63493;BME280;49638;47.526;10.028;2022-09-13T16:33:42;91207.06;;;20.78;72.30
63493;BME280;49638;47.526;10.028;2022-09-13T16:36:42;91220.97;;;20.72;72.57
63493;BME280;49638;47.526;10.028;2022-09-13T16:39:43;91213.22;;;20.62;72.38
63493;BME280;49638;47.526;10.028;2022-09-13T16:42:44;91187.81;;;20.42;72.28
63493;BME280;49638;47.526;10.028;2022-09-13T16:45:45;91202.31;;;20.41;72.53
63493;BME280;49638;47.526;10.028;2022-09-13T16:48:51;91194.28;;;20.32;72.79
63493;BME280;49638;47.526;10.028;2022-09-13T16:51:53;91195.84;;;20.33;73.22
63493;BME280;49638;47.526;10.028;2022-09-13T16:54:53;91187.31;;;20.22;73.44
63493;BME280;49638;47.526;10.028;2022-09-13T16:57:54;91183.19;;;20.16;73.39
63493;BME280;49638;47.526;10.028;2022-09-13T17:00:55;91195.03;;;20.06;73.53
63493;BME280;49638;47.526;10.028;2022-09-13T17:03:55;91199.75;;;20.01;73.71
63493;BME280;49638;47.526;10.028;2022-09-13T17:06:56;91193.88;;;19.90;73.75
63493;BME280;49638;47.526;10.028;2022-09-13T17:09:57;91195.78;;;19.81;74.33
63493;BME280;49638;47.526;10.028;2022-09-13T17:12:57;91194.16;;;19.71;74.24
63493;BME280;49638;47.526;10.028;2022-09-13T17:15:57;91187.34;;;19.65;73.61
63493;BME280;49638;47.526;10.028;2022-09-13T17:19:01;91187.59;;;19.55;73.18
63493;BME280;49638;47.526;10.028;2022-09-13T17:22:03;91207.16;;;19.55;73.29
63493;BME280;49638;47.526;10.028;2022-09-13T17:25:05;91206.97;;;19.43;73.64
63493;BME280;49638;47.526;10.028;2022-09-13T17:28:06;91205.81;;;19.35;73.07
63493;BME280;49638;47.526;10.028;2022-09-13T17:31:07;91198.22;;;19.29;73.56
63493;BME280;49638;47.526;10.028;2022-09-13T17:34:08;91180.66;;;19.14;73.43
63493;BME280;49638;47.526;10.028;2022-09-13T17:37:09;91196.63;;;19.19;73.60
63493;BME280;49638;47.526;10.028;2022-09-13T17:40:09;91200.63;;;19.08;74.03
63493;BME280;49638;47.526;10.028;2022-09-13T17:43:10;91195.53;;;18.98;74.00
63493;BME280;49638;47.526;10.028;2022-09-13T17:46:18;91191.41;;;18.91;74.24
63493;BME280;49638;47.526;10.028;2022-09-13T17:49:21;91196.28;;;18.89;74.39
63493;BME280;49638;47.526;10.028;2022-09-13T17:52:22;91167.78;;;18.71;74.31
63493;BME280;49638;47.526;10.028;2022-09-13T17:55:22;91173.66;;;18.73;74.18
63493;BME280;49638;47.526;10.028;2022-09-13T17:58:24;91172.50;;;18.65;74.08
63493;BME280;49638;47.526;10.028;2022-09-13T18:01:25;91183.63;;;18.59;74.41
63493;BME280;49638;47.526;10.028;2022-09-13T18:04:26;91175.09;;;18.57;74.53
63493;BME280;49638;47.526;10.028;2022-09-13T18:07:26;91180.59;;;18.52;74.97
63493;BME280;49638;47.526;10.028;2022-09-13T18:10:26;91186.81;;;18.47;75.63
63493;BME280;49638;47.526;10.028;2022-09-13T18:13:26;91182.50;;;18.37;76.32
63493;BME280;49638;47.526;10.028;2022-09-13T18:16:27;91195.50;;;18.30;76.51